Time;durP1;ratioP1;P1;durP2;ratioP2;P2;SDS_P1;SDS_P2;PMS_P1;PMS_P2;Temp;Humidity;BMP_temperature;BMP_pressure;BME280_temperature;BME280_humidity;BME280_pressure;Samples;Min_cycle;Max_cycle;Signal;HPM_P1;HPM_P2
2021/04/06 00:01:16;;;;;;;13.68;5.50;;;;;;;;;;8326116;28;20402;-71
2021/04/06 00:05:22;;;;;;;21.75;5.68;;;;;;;;;;8326553;28;20455;-71
2021/04/06 00:09:29;;;;;;;7.75;4.18;;;;;;;;;;8329755;28;20454;-71
2021/04/06 00:13:36;;;;;;;19.15;8.88;;;;;;;;;;8328005;28;20044;-71
2021/04/06 00:17:45;;;;;;;10.60;5.57;;;;;;;;;;8325067;28;20493;-72
2021/04/06 00:21:56;;;;;;;20.40;8.13;;;;;;;;;;8327307;28;20454;-72
2021/04/06 00:26:01;;;;;;;11.30;4.35;;;;;;;;;;8326237;28;20133;-72
2021/04/06 00:30:11;;;;;;;12.75;4.60;;;;;;;;;;8309939;28;20486;-73
2021/04/06 00:34:18;;;;;;;8.25;4.22;;;;;;;;;;8329639;28;20458;-72
2021/04/06 00:38:29;;;;;;;14.90;6.57;;;;;;;;;;8327457;28;20374;-73
2021/04/06 00:42:35;;;;;;;9.65;5.30;;;;;;;;;;8325983;28;20476;-72
2021/04/06 00:46:45;;;;;;;15.35;6.78;;;;;;;;;;8328106;28;20503;-72
2021/04/06 00:51:14;;;;;;;23.52;8.20;;;;;;;;;;8324847;28;20477;-72
2021/04/06 00:55:20;;;;;;;12.43;7.68;;;;;;;;;;8325256;28;20382;-72
2021/04/06 00:59:25;;;;;;;11.63;6.55;;;;;;;;;;8309003;28;20066;-72
2021/04/06 01:03:28;;;;;;;14.35;6.57;;;;;;;;;;8315395;28;20377;-72
2021/04/06 01:07:37;;;;;;;13.18;6.72;;;;;;;;;;8295221;28;20056;-72
2021/04/06 01:11:43;;;;;;;16.63;6.28;;;;;;;;;;8292458;28;20066;-72
2021/04/06 01:15:50;;;;;;;13.45;7.00;;;;;;;;;;8291254;28;20044;-72
2021/04/06 01:20:15;;;;;;;12.52;5.78;;;;;;;;;;8292399;28;20352;-72
2021/04/06 01:24:20;;;;;;;10.57;5.82;;;;;;;;;;8292975;28;20053;-73
2021/04/06 01:28:29;;;;;;;10.90;6.45;;;;;;;;;;8291772;28;20461;-72
2021/04/06 01:32:34;;;;;;;10.65;5.50;;;;;;;;;;8291994;28;20340;-72
2021/04/06 01:36:39;;;;;;;8.60;5.75;;;;;;;;;;8275325;28;20394;-72
2021/04/06 01:40:46;;;;;;;11.00;4.60;;;;;;;;;;8291236;28;20378;-72
2021/04/06 01:44:53;;;;;;;10.70;4.85;;;;;;;;;;8289821;28;20111;-72
2021/04/06 01:48:59;;;;;;;9.82;4.13;;;;;;;;;;8274562;28;20344;-72
2021/04/06 01:53:04;;;;;;;7.38;3.53;;;;;;;;;;8273863;28;20052;-72
2021/04/06 01:57:14;;;;;;;4.30;2.60;;;;;;;;;;8288187;28;20482;-72
2021/04/06 02:01:22;;;;;;;7.18;2.95;;;;;;;;;;8289503;28;20060;-72
2021/04/06 02:05:26;;;;;;;6.50;3.10;;;;;;;;;;8289968;28;20379;-72
2021/04/06 02:09:31;;;;;;;6.05;2.50;;;;;;;;;;8289055;28;20447;-73
2021/04/06 02:13:35;;;;;;;6.28;2.40;;;;;;;;;;8290948;28;20056;-73
2021/04/06 02:17:54;;;;;;;5.63;2.70;;;;;;;;;;8292324;28;20387;-72
2021/04/06 02:22:10;;;;;;;5.07;2.20;;;;;;;;;;8291062;28;20467;-72
2021/04/06 02:26:15;;;;;;;5.43;2.10;;;;;;;;;;8292945;28;20439;-72
2021/04/06 02:30:29;;;;;;;7.93;3.10;;;;;;;;;;8290349;28;20406;-72
2021/04/06 02:34:43;;;;;;;8.30;2.50;;;;;;;;;;8290260;28;20371;-72
2021/04/06 02:38:48;;;;;;;6.95;2.25;;;;;;;;;;8289028;28;20418;-72
2021/04/06 02:42:57;;;;;;;6.15;2.13;;;;;;;;;;8291926;28;20403;-72
2021/04/06 02:47:03;;;;;;;7.50;2.20;;;;;;;;;;8290512;28;20053;-72
2021/04/06 02:51:08;;;;;;;6.03;2.30;;;;;;;;;;8288559;28;20471;-72
2021/04/06 02:55:14;;;;;;;5.00;1.92;;;;;;;;;;8289445;28;20505;-72
2021/04/06 02:59:21;;;;;;;4.30;2.20;;;;;;;;;;8288762;28;20512;-72
2021/04/06 03:03:28;;;;;;;5.57;2.00;;;;;;;;;;8289076;28;20337;-73
2021/04/06 03:07:43;;;;;;;13.32;2.15;;;;;;;;;;8295864;28;20371;-72
2021/04/06 03:11:53;;;;;;;4.95;2.38;;;;;;;;;;8296319;28;20044;-71
2021/04/06 03:15:58;;;;;;;4.88;1.98;;;;;;;;;;8296595;28;20083;-71
2021/04/06 03:20:03;;;;;;;8.77;2.60;;;;;;;;;;8295659;28;20048;-72
2021/04/06 03:24:09;;;;;;;7.32;2.13;;;;;;;;;;8298528;28;20401;-71
2021/04/06 03:28:14;;;;;;;6.03;2.03;;;;;;;;;;8294843;28;20371;-72
2021/04/06 03:32:19;;;;;;;7.05;2.20;;;;;;;;;;8295998;28;20056;-71
2021/04/06 03:36:25;;;;;;;4.43;2.10;;;;;;;;;;8296996;28;20485;-71
2021/04/06 03:40:39;;;;;;;6.32;1.85;;;;;;;;;;8296379;28;20074;-71
2021/04/06 03:44:44;;;;;;;10.55;2.90;;;;;;;;;;8294476;28;20463;-71
2021/04/06 03:48:48;;;;;;;5.47;2.08;;;;;;;;;;8295128;28;20479;-71
2021/04/06 03:53:03;;;;;;;9.38;3.42;;;;;;;;;;8294628;28;20360;-71
2021/04/06 03:57:36;;;;;;;5.15;2.05;;;;;;;;;;8294773;28;20482;-71
2021/04/06 04:01:41;;;;;;;8.10;2.58;;;;;;;;;;8294348;28;20386;-70
2021/04/06 04:05:45;;;;;;;10.50;2.67;;;;;;;;;;8294899;28;20475;-70
2021/04/06 04:09:51;;;;;;;5.38;2.00;;;;;;;;;;8278077;28;20049;-71
2021/04/06 04:13:55;;;;;;;7.90;2.17;;;;;;;;;;8295170;28;20068;-70
2021/04/06 04:18:01;;;;;;;8.68;2.35;;;;;;;;;;8293905;28;20358;-70
2021/04/06 04:22:06;;;;;;;5.13;2.40;;;;;;;;;;8293857;28;20471;-70
2021/04/06 04:26:11;;;;;;;8.55;2.85;;;;;;;;;;8294104;28;20371;-70
2021/04/06 04:30:34;;;;;;;8.43;2.88;;;;;;;;;;8293668;28;20044;-70
2021/04/06 04:34:40;;;;;;;7.20;2.63;;;;;;;;;;8293520;28;20053;-71
2021/04/06 04:38:44;;;;;;;6.55;2.78;;;;;;;;;;8292263;28;20475;-70
2021/04/06 04:42:56;;;;;;;8.52;2.45;;;;;;;;;;8294008;28;20354;-70
2021/04/06 04:47:00;;;;;;;10.35;2.58;;;;;;;;;;8291400;28;20469;-71
2021/04/06 04:51:05;;;;;;;8.40;2.92;;;;;;;;;;8291801;28;20386;-70
2021/04/06 04:55:15;;;;;;;6.80;2.53;;;;;;;;;;8308187;28;20071;-69
2021/04/06 04:59:20;;;;;;;9.98;3.13;;;;;;;;;;8292877;28;20466;-70
2021/04/06 05:03:25;;;;;;;8.65;3.85;;;;;;;;;;8291248;28;20036;-70
2021/04/06 05:07:29;;;;;;;9.52;3.13;;;;;;;;;;8293603;28;20409;-70
2021/04/06 05:11:33;;;;;;;9.02;4.50;;;;;;;;;;8294347;28;20036;-70
2021/04/06 05:15:36;;;;;;;14.10;4.20;;;;;;;;;;8291874;28;20494;-70
2021/04/06 05:19:41;;;;;;;9.38;3.97;;;;;;;;;;8294503;28;20409;-71
2021/04/06 05:23:46;;;;;;;10.40;3.53;;;;;;;;;;8307197;28;20348;-70
2021/04/06 05:27:50;;;;;;;9.88;3.33;;;;;;;;;;8291537;28;20376;-70
2021/04/06 05:31:55;;;;;;;11.00;3.60;;;;;;;;;;8309146;28;20375;-70
2021/04/06 05:36:00;;;;;;;8.88;3.60;;;;;;;;;;8291023;28;20048;-70
2021/04/06 05:40:06;;;;;;;6.22;2.65;;;;;;;;;;8292004;28;20075;-70
2021/04/06 05:44:12;;;;;;;9.82;2.35;;;;;;;;;;8290138;28;20067;-71
2021/04/06 05:48:17;;;;;;;11.90;3.65;;;;;;;;;;8292612;28;20454;-70
2021/04/06 05:52:22;;;;;;;10.50;3.55;;;;;;;;;;8290539;28;20414;-70
2021/04/06 05:56:26;;;;;;;10.18;2.75;;;;;;;;;;8289587;28;20471;-70
2021/04/06 06:00:31;;;;;;;8.95;3.00;;;;;;;;;;8292189;28;20371;-70
2021/04/06 06:04:36;;;;;;;10.95;3.45;;;;;;;;;;8291489;28;20371;-70
2021/04/06 06:08:41;;;;;;;12.98;3.28;;;;;;;;;;8290233;28;20406;-71
2021/04/06 06:12:46;;;;;;;8.63;4.47;;;;;;;;;;8292869;28;20044;-71
2021/04/06 06:16:50;;;;;;;11.80;4.13;;;;;;;;;;8292259;28;20459;-70
2021/04/06 06:20:55;;;;;;;9.00;3.53;;;;;;;;;;8289329;28;20402;-72
2021/04/06 06:25:13;;;;;;;14.15;4.55;;;;;;;;;;8290416;28;20483;-72
2021/04/06 06:29:21;;;;;;;10.77;3.92;;;;;;;;;;8291679;28;20475;-72
2021/04/06 06:33:29;;;;;;;8.20;3.00;;;;;;;;;;8291256;28;20363;-70
2021/04/06 06:37:37;;;;;;;9.55;3.47;;;;;;;;;;8290972;28;20436;-71
2021/04/06 06:41:58;;;;;;;11.63;3.97;;;;;;;;;;8291497;28;20052;-70
2021/04/06 06:46:03;;;;;;;8.65;3.55;;;;;;;;;;8291609;28;20075;-71
2021/04/06 06:50:13;;;;;;;12.38;3.88;;;;;;;;;;8291069;28;20798;-70
2021/04/06 06:54:42;;;;;;;9.77;3.50;;;;;;;;;;8292384;28;20475;-70
2021/04/06 06:58:46;;;;;;;17.17;5.25;;;;;;;;;;8292298;28;20464;-70
2021/04/06 07:02:51;;;;;;;16.73;4.55;;;;;;;;;;8290418;28;20517;-69
2021/04/06 07:06:59;;;;;;;13.25;5.10;;;;;;;;;;8289141;28;20483;-71
2021/04/06 07:11:04;;;;;;;15.48;5.05;;;;;;;;;;8289728;28;20080;-72
2021/04/06 07:15:09;;;;;;;8.10;4.40;;;;;;;;;;8289546;28;20044;-70
2021/04/06 07:19:14;;;;;;;19.52;5.43;;;;;;;;;;8289943;28;20363;-70
2021/04/06 07:23:34;;;;;;;12.98;4.40;;;;;;;;;;8289827;28;20374;-71
2021/04/06 07:27:43;;;;;;;12.00;5.70;;;;;;;;;;8288663;28;20494;-70
2021/04/06 07:31:48;;;;;;;13.18;5.38;;;;;;;;;;8304855;28;20490;-70
2021/04/06 07:35:53;;;;;;;17.70;7.50;;;;;;;;;;8285511;28;20083;-70
2021/04/06 07:40:04;;;;;;;20.40;5.30;;;;;;;;;;8287333;28;20237;-70
2021/04/06 07:44:10;;;;;;;15.57;6.22;;;;;;;;;;8287770;28;20467;-70
2021/04/06 07:48:51;;;;;;;13.02;5.15;;;;;;;;;;8289075;28;20475;-70
2021/04/06 07:53:24;;;;;;;10.70;4.82;;;;;;;;;;8274482;28;20486;-70
2021/04/06 07:57:47;;;;;;;15.10;5.80;;;;;;;;;;8291885;28;20475;-71
2021/04/06 08:01:52;;;;;;;11.85;4.03;;;;;;;;;;8294177;28;20412;-72
2021/04/06 08:06:18;;;;;;;14.77;6.07;;;;;;;;;;8294228;28;20363;-71
2021/04/06 08:10:26;;;;;;;16.48;6.25;;;;;;;;;;8294427;28;20362;-71
2021/04/06 08:15:01;;;;;;;14.93;7.43;;;;;;;;;;8294263;28;20445;-72
2021/04/06 08:19:06;;;;;;;14.07;5.10;;;;;;;;;;8294337;28;20475;-72
2021/04/06 08:23:33;;;;;;;12.65;6.32;;;;;;;;;;8295227;28;20485;-72
2021/04/06 08:27:40;;;;;;;16.75;6.03;;;;;;;;;;8279425;28;20390;-74
2021/04/06 08:31:46;;;;;;;17.58;4.70;;;;;;;;;;8295174;28;20347;-73
2021/04/06 08:35:52;;;;;;;10.10;3.28;;;;;;;;;;8294289;28;20386;-73
2021/04/06 08:39:56;;;;;;;18.35;8.13;;;;;;;;;;8294981;28;20467;-74
2021/04/06 08:44:06;;;;;;;54.80;14.77;;;;;;;;;;8292297;28;20071;-74
2021/04/06 08:48:09;;;;;;;72.80;20.33;;;;;;;;;;8292590;28;20052;-74
2021/04/06 08:52:16;;;;;;;36.22;9.48;;;;;;;;;;8291329;28;20079;-74
2021/04/06 08:56:23;;;;;;;13.82;5.20;;;;;;;;;;8293232;28;20474;-74
2021/04/06 09:00:28;;;;;;;17.27;6.15;;;;;;;;;;8291790;28;20463;-74
2021/04/06 09:04:51;;;;;;;26.33;9.13;;;;;;;;;;8290982;28;20458;-74
2021/04/06 09:08:56;;;;;;;9.20;4.05;;;;;;;;;;8292032;28;20467;-73
2021/04/06 09:13:02;;;;;;;22.55;6.07;;;;;;;;;;8292327;28;20514;-72
2021/04/06 09:17:06;;;;;;;34.65;11.40;;;;;;;;;;8295673;28;20072;-73
2021/04/06 09:21:09;;;;;;;14.82;4.30;;;;;;;;;;8294473;28;20348;-72
2021/04/06 09:25:29;;;;;;;20.90;6.05;;;;;;;;;;8289659;28;20498;-72
2021/04/06 09:29:43;;;;;;;15.77;5.03;;;;;;;;;;8287605;28;20375;-72
2021/04/06 09:33:48;;;;;;;12.75;4.00;;;;;;;;;;8291104;28;20048;-72
2021/04/06 09:37:55;;;;;;;17.17;5.65;;;;;;;;;;8287856;28;20075;-72
2021/04/06 09:42:01;;;;;;;12.25;4.13;;;;;;;;;;8292777;28;20367;-72
2021/04/06 09:46:07;;;;;;;12.38;5.30;;;;;;;;;;8289887;28;20409;-71
2021/04/06 09:50:12;;;;;;;7.10;3.35;;;;;;;;;;8291393;28;20052;-71
2021/04/06 09:54:34;;;;;;;6.20;2.97;;;;;;;;;;8291162;28;20501;-73
2021/04/06 09:58:39;;;;;;;10.50;3.85;;;;;;;;;;8293146;28;20467;-72
2021/04/06 10:03:03;;;;;;;12.70;3.22;;;;;;;;;;8290995;28;20417;-71
2021/04/06 10:07:13;;;;;;;13.45;2.53;;;;;;;;;;8307071;28;20448;-71
2021/04/06 10:11:24;;;;;;;7.57;2.75;;;;;;;;;;8291737;28;20459;-72
2021/04/06 10:15:33;;;;;;;10.00;2.83;;;;;;;;;;8291943;28;20486;-71
2021/04/06 10:19:55;;;;;;;7.32;2.60;;;;;;;;;;8289330;28;20476;-71
2021/04/06 10:24:04;;;;;;;10.48;3.38;;;;;;;;;;8290557;28;20061;-71
2021/04/06 10:28:23;;;;;;;8.88;2.75;;;;;;;;;;8290799;28;20363;-70
2021/04/06 10:32:36;;;;;;;9.43;2.85;;;;;;;;;;8288771;28;20495;-70
2021/04/06 10:37:04;;;;;;;5.47;2.60;;;;;;;;;;8291352;28;20495;-69
2021/04/06 10:41:16;;;;;;;6.30;2.80;;;;;;;;;;8289821;28;20481;-70
2021/04/06 10:45:24;;;;;;;9.15;3.08;;;;;;;;;;8288889;28;20375;-72
2021/04/06 10:49:31;;;;;;;9.10;3.75;;;;;;;;;;8289629;28;20357;-70
2021/04/06 10:53:53;;;;;;;8.57;3.40;;;;;;;;;;8291722;28;20467;-70
2021/04/06 10:57:58;;;;;;;8.95;4.43;;;;;;;;;;8271813;28;20418;-69
2021/04/06 11:02:05;;;;;;;11.38;4.25;;;;;;;;;;8288945;28;20493;-71
2021/04/06 11:06:17;;;;;;;9.03;3.00;;;;;;;;;;8289508;28;20367;-70
2021/04/06 11:10:26;;;;;;;10.82;3.63;;;;;;;;;;8288141;28;20052;-71
2021/04/06 11:14:45;;;;;;;18.63;6.28;;;;;;;;;;8289342;28;20391;-70
2021/04/06 11:19:05;;;;;;;11.80;4.03;;;;;;;;;;8288038;28;20451;-70
2021/04/06 11:23:10;;;;;;;34.55;11.88;;;;;;;;;;8287710;28;20057;-70
2021/04/06 11:27:17;;;;;;;52.78;17.50;;;;;;;;;;8291350;28;20349;-71
2021/04/06 11:31:23;;;;;;;47.95;14.57;;;;;;;;;;8295256;28;20471;-70
2021/04/06 11:35:29;;;;;;;43.92;12.38;;;;;;;;;;8293361;28;20474;-70
2021/04/06 11:39:37;;;;;;;41.28;13.27;;;;;;;;;;8297374;28;20483;-70
2021/04/06 11:44:01;;;;;;;10.60;3.65;;;;;;;;;;8292579;28;20586;-71
2021/04/06 11:48:21;;;;;;;10.80;4.47;;;;;;;;;;8291850;28;20483;-69
2021/04/06 11:52:26;;;;;;;10.20;3.88;;;;;;;;;;8291908;28;20467;-72
2021/04/06 11:56:29;;;;;;;27.83;9.32;;;;;;;;;;8294763;28;20045;-70
2021/04/06 12:00:39;;;;;;;7.57;2.42;;;;;;;;;;8294019;28;20383;-71
2021/04/06 12:04:43;;;;;;;10.23;3.25;;;;;;;;;;8297259;28;20413;-70
2021/04/06 12:08:47;;;;;;;10.23;4.63;;;;;;;;;;8295009;28;20033;-70
2021/04/06 12:13:00;;;;;;;7.85;2.90;;;;;;;;;;8292703;28;20052;-70
2021/04/06 12:17:09;;;;;;;13.98;4.78;;;;;;;;;;8295821;28;20497;-72
2021/04/06 12:21:19;;;;;;;25.27;7.40;;;;;;;;;;8293824;28;20076;-72
2021/04/06 12:25:28;;;;;;;8.82;3.30;;;;;;;;;;8297512;28;20684;-72
2021/04/06 12:29:38;;;;;;;11.77;5.15;;;;;;;;;;8294937;28;20497;-70
2021/04/06 12:33:51;;;;;;;11.23;3.15;;;;;;;;;;8309243;28;20423;-71
2021/04/06 12:37:59;;;;;;;8.32;3.38;;;;;;;;;;8291521;28;20471;-70
2021/04/06 12:42:07;;;;;;;12.60;4.00;;;;;;;;;;8295106;28;20375;-70
2021/04/06 12:46:11;;;;;;;8.55;3.53;;;;;;;;;;8294814;28;20068;-70
2021/04/06 12:50:17;;;;;;;11.70;4.95;;;;;;;;;;8295064;28;20399;-69
2021/04/06 12:54:21;;;;;;;11.90;5.28;;;;;;;;;;8292715;28;20049;-70
2021/04/06 12:58:26;;;;;;;3.78;2.40;;;;;;;;;;8291380;28;20368;-72
2021/04/06 13:02:32;;;;;;;18.10;4.80;;;;;;;;;;8310523;28;20499;-71
2021/04/06 13:06:38;;;;;;;13.27;9.05;;;;;;;;;;8294497;28;20053;-71
2021/04/06 13:10:44;;;;;;;9.77;3.40;;;;;;;;;;8291092;28;20094;-72
2021/04/06 13:14:50;;;;;;;8.90;3.75;;;;;;;;;;8293020;28;20056;-70
2021/04/06 13:18:54;;;;;;;10.85;4.10;;;;;;;;;;8292287;28;20387;-70
2021/04/06 13:22:57;;;;;;;6.65;3.00;;;;;;;;;;8306832;28;20052;-70
2021/04/06 13:27:02;;;;;;;15.30;5.93;;;;;;;;;;8289653;28;20048;-70
2021/04/06 13:31:06;;;;;;;10.30;2.13;;;;;;;;;;8291570;28;20490;-70
2021/04/06 13:35:12;;;;;;;5.75;2.50;;;;;;;;;;8290934;28;20443;-70
2021/04/06 13:39:16;;;;;;;16.50;4.63;;;;;;;;;;8293482;28;20459;-70
2021/04/06 13:43:21;;;;;;;7.95;3.55;;;;;;;;;;8291025;28;20447;-71
2021/04/06 13:47:25;;;;;;;5.18;2.42;;;;;;;;;;8292479;28;20410;-70
2021/04/06 13:51:30;;;;;;;12.70;3.30;;;;;;;;;;8305842;28;20344;-70
2021/04/06 13:55:35;;;;;;;7.95;5.32;;;;;;;;;;8289647;28;20539;-70
2021/04/06 13:59:40;;;;;;;11.48;3.90;;;;;;;;;;8293125;28;20349;-71
2021/04/06 14:03:44;;;;;;;16.23;8.23;;;;;;;;;;8291233;28;20451;-71
2021/04/06 14:07:49;;;;;;;12.15;4.57;;;;;;;;;;8292824;28;20076;-70
2021/04/06 14:11:53;;;;;;;3.50;1.90;;;;;;;;;;8290986;28;20533;-69
2021/04/06 14:15:59;;;;;;;3.58;1.95;;;;;;;;;;8289046;28;20056;-70
2021/04/06 14:20:08;;;;;;;18.85;7.55;;;;;;;;;;8291047;28;20528;-70
2021/04/06 14:24:13;;;;;;;17.27;9.90;;;;;;;;;;8287978;28;20048;-71
2021/04/06 14:28:20;;;;;;;19.60;9.68;;;;;;;;;;8290383;28;20475;-71
2021/04/06 14:32:25;;;;;;;27.60;10.23;;;;;;;;;;8290171;28;20460;-70
2021/04/06 14:36:30;;;;;;;7.82;3.38;;;;;;;;;;8288799;28;20336;-70
2021/04/06 14:40:38;;;;;;;5.60;2.55;;;;;;;;;;8290687;28;20379;-70
2021/04/06 14:44:43;;;;;;;4.55;2.35;;;;;;;;;;8289074;28;20482;-71
2021/04/06 14:48:51;;;;;;;4.03;1.85;;;;;;;;;;8289822;28;20467;-70
2021/04/06 14:52:57;;;;;;;5.15;2.53;;;;;;;;;;8288612;28;20371;-69
2021/04/06 14:57:05;;;;;;;6.10;3.15;;;;;;;;;;8288962;28;20452;-69
2021/04/06 15:01:10;;;;;;;10.15;4.70;;;;;;;;;;8295146;28;20810;-70
2021/04/06 15:05:24;;;;;;;7.32;3.80;;;;;;;;;;8301052;28;20375;-69
2021/04/06 15:09:28;;;;;;;7.28;3.80;;;;;;;;;;8299676;28;20368;-70
2021/04/06 15:13:37;;;;;;;22.70;13.65;;;;;;;;;;8298627;28;20396;-69
2021/04/06 15:17:45;;;;;;;156.98;72.35;;;;;;;;;;8301592;28;20113;-69
2021/04/06 15:22:02;;;;;;;256.80;113.50;;;;;;;;;;8299981;28;20048;-70
2021/04/06 15:26:11;;;;;;;335.25;145.75;;;;;;;;;;8300683;28;20075;-69
2021/04/06 15:30:28;;;;;;;40.28;20.42;;;;;;;;;;8298183;28;20528;-70
2021/04/06 15:34:35;;;;;;;20.90;9.27;;;;;;;;;;8302375;28;20447;-70
2021/04/06 15:38:40;;;;;;;25.50;14.02;;;;;;;;;;8299846;28;20390;-69
2021/04/06 15:42:49;;;;;;;16.00;7.55;;;;;;;;;;8298959;28;20378;-69
2021/04/06 15:46:54;;;;;;;11.63;5.78;;;;;;;;;;8300003;28;20486;-70
2021/04/06 15:51:03;;;;;;;14.52;4.57;;;;;;;;;;8301263;28;20366;-71
2021/04/06 15:55:12;;;;;;;13.70;4.97;;;;;;;;;;8313712;28;20044;-71
2021/04/06 15:59:17;;;;;;;10.20;4.88;;;;;;;;;;8310521;28;20484;-70
2021/04/06 16:03:23;;;;;;;85.68;33.13;;;;;;;;;;8300937;28;20455;-70
2021/04/06 16:07:29;;;;;;;72.87;37.47;;;;;;;;;;8297984;28;20471;-71
2021/04/06 16:11:35;;;;;;;12.35;6.78;;;;;;;;;;8315677;28;20763;-71
2021/04/06 16:15:40;;;;;;;53.58;22.05;;;;;;;;;;8309238;28;20448;-70
2021/04/06 16:19:57;;;;;;;31.95;11.93;;;;;;;;;;8294999;28;20063;-70
2021/04/06 16:24:04;;;;;;;25.08;10.80;;;;;;;;;;8277754;28;20636;-70
2021/04/06 16:28:11;;;;;;;55.47;25.33;;;;;;;;;;8292319;28;20361;-70
2021/04/06 16:32:17;;;;;;;55.80;24.10;;;;;;;;;;8292459;28;20521;-70
2021/04/06 16:36:21;;;;;;;92.10;55.58;;;;;;;;;;8295190;28;20367;-70
2021/04/06 16:40:26;;;;;;;117.35;68.53;;;;;;;;;;8295382;28;20471;-71
2021/04/06 16:44:31;;;;;;;76.25;39.83;;;;;;;;;;8275726;28;20361;-70
2021/04/06 16:48:36;;;;;;;51.40;23.98;;;;;;;;;;8292602;28;20463;-70
2021/04/06 16:52:44;;;;;;;23.80;10.55;;;;;;;;;;8307228;28;20402;-71
2021/04/06 16:56:51;;;;;;;42.72;16.83;;;;;;;;;;8292860;28;20111;-71
2021/04/06 17:00:57;;;;;;;21.10;9.88;;;;;;;;;;8294709;28;20052;-71
2021/04/06 17:05:02;;;;;;;25.45;12.02;;;;;;;;;;8275624;28;20404;-70
2021/04/06 17:09:08;;;;;;;18.35;8.40;;;;;;;;;;8291407;28;20355;-70
2021/04/06 17:13:13;;;;;;;15.35;6.32;;;;;;;;;;8290463;28;20387;-70
2021/04/06 17:17:17;;;;;;;17.85;7.88;;;;;;;;;;8292530;28;20052;-72
2021/04/06 17:21:23;;;;;;;21.38;9.63;;;;;;;;;;8292511;28;20520;-70
2021/04/06 17:25:33;;;;;;;19.48;8.23;;;;;;;;;;8293291;28;20352;-71
2021/04/06 17:29:38;;;;;;;26.10;11.13;;;;;;;;;;8291676;28;20052;-71
2021/04/06 17:33:43;;;;;;;30.75;11.27;;;;;;;;;;8293234;28;20169;-71
2021/04/06 17:37:49;;;;;;;37.97;16.17;;;;;;;;;;8294857;28;20478;-70
2021/04/06 17:41:57;;;;;;;162.75;56.00;;;;;;;;;;8291208;28;20479;-70
2021/04/06 17:46:01;;;;;;;77.10;25.87;;;;;;;;;;8289556;28;20092;-70
2021/04/06 17:50:08;;;;;;;68.68;30.30;;;;;;;;;;8291414;28;20467;-70
2021/04/06 17:54:13;;;;;;;77.47;30.80;;;;;;;;;;8289721;28;20386;-70
2021/04/06 17:58:16;;;;;;;80.53;33.78;;;;;;;;;;8288984;28;20366;-68
2021/04/06 18:02:20;;;;;;;56.20;23.63;;;;;;;;;;8291321;28;20471;-71
2021/04/06 18:06:25;;;;;;;116.15;39.35;;;;;;;;;;8292753;28;20379;-71
2021/04/06 18:10:31;;;;;;;103.55;39.05;;;;;;;;;;8289708;28;20375;-71
2021/04/06 18:14:37;;;;;;;187.18;63.83;;;;;;;;;;8289558;28;20501;-71
2021/04/06 18:18:42;;;;;;;129.35;43.40;;;;;;;;;;8288043;28;20463;-70
2021/04/06 18:22:50;;;;;;;194.25;61.45;;;;;;;;;;8288863;28;20491;-70
2021/04/06 18:26:57;;;;;;;179.30;56.90;;;;;;;;;;8289454;28;20455;-71
2021/04/06 18:31:03;;;;;;;79.38;27.88;;;;;;;;;;8290116;28;20478;-70
2021/04/06 18:35:11;;;;;;;92.45;31.88;;;;;;;;;;8289746;28;20483;-70
2021/04/06 18:39:21;;;;;;;62.65;24.13;;;;;;;;;;8289583;28;20337;-69
2021/04/06 18:43:26;;;;;;;57.97;20.20;;;;;;;;;;8289596;28;20391;-69
2021/04/06 18:47:33;;;;;;;63.58;22.63;;;;;;;;;;8288584;28;20379;-69
2021/04/06 18:51:40;;;;;;;33.53;13.98;;;;;;;;;;8290206;28;20351;-69
2021/04/06 18:55:45;;;;;;;43.47;17.05;;;;;;;;;;8289627;28;20340;-69
2021/04/06 18:59:50;;;;;;;44.92;15.88;;;;;;;;;;8290402;28;20071;-69
2021/04/06 19:03:55;;;;;;;39.22;14.02;;;;;;;;;;8272179;28;20544;-70
2021/04/06 19:08:04;;;;;;;88.85;25.75;;;;;;;;;;8289800;28;20501;-70
2021/04/06 19:12:11;;;;;;;28.27;12.85;;;;;;;;;;8290807;28;20340;-70
2021/04/06 19:16:16;;;;;;;28.77;10.20;;;;;;;;;;8290431;28;20382;-69
2021/04/06 19:20:23;;;;;;;59.63;18.65;;;;;;;;;;8289988;28;20052;-71
2021/04/06 19:24:28;;;;;;;70.93;23.65;;;;;;;;;;8287115;28;20387;-69
2021/04/06 19:28:33;;;;;;;88.07;25.98;;;;;;;;;;8287884;28;20451;-69
2021/04/06 19:32:39;;;;;;;74.07;28.60;;;;;;;;;;8288865;28;20479;-69
2021/04/06 19:36:44;;;;;;;99.00;34.08;;;;;;;;;;8289547;28;20379;-69
2021/04/06 19:40:49;;;;;;;86.50;29.33;;;;;;;;;;8289700;28;20351;-69
2021/04/06 19:44:55;;;;;;;45.60;18.65;;;;;;;;;;8288893;28;20465;-69
2021/04/06 19:49:04;;;;;;;40.78;17.40;;;;;;;;;;8291934;28;20397;-69
2021/04/06 19:53:10;;;;;;;54.10;22.35;;;;;;;;;;8295116;28;20421;-68
2021/04/06 19:57:14;;;;;;;103.88;25.35;;;;;;;;;;8294768;28;20383;-69
2021/04/06 20:01:18;;;;;;;76.97;26.00;;;;;;;;;;8294114;28;20375;-68
2021/04/06 20:05:25;;;;;;;103.72;30.13;;;;;;;;;;8295614;28;20463;-69
2021/04/06 20:09:28;;;;;;;81.07;31.48;;;;;;;;;;8295180;28;20475;-68
2021/04/06 20:13:35;;;;;;;91.20;27.50;;;;;;;;;;8277045;28;20053;-68
2021/04/06 20:17:42;;;;;;;64.45;21.60;;;;;;;;;;8294932;28;20056;-68
2021/04/06 20:21:51;;;;;;;61.97;22.45;;;;;;;;;;8309604;28;20493;-67
2021/04/06 20:25:59;;;;;;;187.55;50.42;;;;;;;;;;8292702;28;20371;-67
2021/04/06 20:30:10;;;;;;;274.52;83.72;;;;;;;;;;8295760;28;20066;-70
2021/04/06 20:34:15;;;;;;;95.15;32.85;;;;;;;;;;8293931;28;20133;-67
2021/04/06 20:38:19;;;;;;;84.50;28.20;;;;;;;;;;8294563;28;20406;-67
2021/04/06 20:42:24;;;;;;;113.22;32.88;;;;;;;;;;8294397;28;20440;-67
2021/04/06 20:46:29;;;;;;;104.28;31.27;;;;;;;;;;8292051;28;20375;-68
2021/04/06 20:50:35;;;;;;;92.70;29.08;;;;;;;;;;8293497;28;20062;-67
2021/04/06 20:54:39;;;;;;;88.72;26.63;;;;;;;;;;8295343;28;20401;-68
2021/04/06 20:58:47;;;;;;;98.00;28.70;;;;;;;;;;8292586;28;20441;-67
2021/04/06 21:02:52;;;;;;;112.10;32.42;;;;;;;;;;8293854;28;20062;-66
2021/04/06 21:06:56;;;;;;;153.30;42.55;;;;;;;;;;8293091;28;20456;-67
2021/04/06 21:11:01;;;;;;;108.53;32.70;;;;;;;;;;8292728;28;20348;-67
2021/04/06 21:15:07;;;;;;;79.30;25.88;;;;;;;;;;8292646;28;20361;-66
2021/04/06 21:19:11;;;;;;;74.75;22.38;;;;;;;;;;8292109;28;20105;-67
2021/04/06 21:23:17;;;;;;;56.67;18.58;;;;;;;;;;8293148;28;20447;-67
2021/04/06 21:27:21;;;;;;;70.10;19.77;;;;;;;;;;8292124;28;20363;-69
2021/04/06 21:31:26;;;;;;;62.47;20.05;;;;;;;;;;8291972;28;20370;-68
2021/04/06 21:35:34;;;;;;;48.78;17.23;;;;;;;;;;8292614;28;20405;-67
2021/04/06 21:39:38;;;;;;;53.97;18.58;;;;;;;;;;8292080;28;20473;-66
2021/04/06 21:43:43;;;;;;;54.88;20.02;;;;;;;;;;8291420;28;20486;-68
2021/04/06 21:47:49;;;;;;;52.20;19.20;;;;;;;;;;8291297;28;20541;-67
2021/04/06 21:51:53;;;;;;;50.40;19.48;;;;;;;;;;8291099;28;20383;-66
2021/04/06 21:55:58;;;;;;;79.05;25.25;;;;;;;;;;8291386;28;20493;-66
2021/04/06 22:00:11;;;;;;;61.80;17.80;;;;;;;;;;8291098;28;20067;-67
2021/04/06 22:04:16;;;;;;;50.72;18.65;;;;;;;;;;8291556;28;20382;-66
2021/04/06 22:08:20;;;;;;;52.88;19.27;;;;;;;;;;8292893;28;20356;-66
2021/04/06 22:12:28;;;;;;;126.10;34.08;;;;;;;;;;8290279;28;20431;-66
2021/04/06 22:16:35;;;;;;;54.92;19.75;;;;;;;;;;8291933;28;20413;-68
2021/04/06 22:20:43;;;;;;;58.58;20.25;;;;;;;;;;8292189;28;20401;-67
2021/04/06 22:24:47;;;;;;;63.67;20.05;;;;;;;;;;8292202;28;20491;-68
2021/04/06 22:28:52;;;;;;;52.00;20.55;;;;;;;;;;8290850;28;20413;-67
2021/04/06 22:32:56;;;;;;;55.65;18.65;;;;;;;;;;8291636;28;20447;-67
2021/04/06 22:37:01;;;;;;;48.05;16.25;;;;;;;;;;8290201;28;20479;-66
2021/04/06 22:41:06;;;;;;;60.17;19.73;;;;;;;;;;8290239;28;20467;-66
2021/04/06 22:45:18;;;;;;;57.60;18.45;;;;;;;;;;8291242;28;20469;-67
2021/04/06 22:49:21;;;;;;;65.78;20.83;;;;;;;;;;8290535;28;20410;-67
2021/04/06 22:53:33;;;;;;;64.40;22.23;;;;;;;;;;8290284;28;20409;-67
2021/04/06 22:57:39;;;;;;;99.75;32.25;;;;;;;;;;8288900;28;20462;-67
2021/04/06 23:01:43;;;;;;;209.30;67.25;;;;;;;;;;8291710;28;20075;-66
2021/04/06 23:05:48;;;;;;;181.15;61.38;;;;;;;;;;8292359;28;20472;-66
2021/04/06 23:09:53;;;;;;;178.35;70.18;;;;;;;;;;8290597;28;20390;-66
2021/04/06 23:13:58;;;;;;;114.00;40.55;;;;;;;;;;8289958;28;20402;-67
2021/04/06 23:18:05;;;;;;;83.90;27.55;;;;;;;;;;8290415;28;20443;-66
2021/04/06 23:22:16;;;;;;;68.05;23.83;;;;;;;;;;8292069;28;20374;-67
2021/04/06 23:26:20;;;;;;;77.30;22.15;;;;;;;;;;8296326;28;20056;-66
2021/04/06 23:30:36;;;;;;;91.90;35.00;;;;;;;;;;8296038;28;20405;-66
2021/04/06 23:34:43;;;;;;;69.55;23.85;;;;;;;;;;8296022;28;20467;-66
2021/04/06 23:38:48;;;;;;;82.72;29.27;;;;;;;;;;8295152;28;20337;-67
2021/04/06 23:42:53;;;;;;;108.63;36.53;;;;;;;;;;8297435;28;20066;-67
2021/04/06 23:46:58;;;;;;;131.82;44.45;;;;;;;;;;8296056;28;20048;-66
2021/04/06 23:51:03;;;;;;;95.07;32.45;;;;;;;;;;8295869;28;20370;-67
2021/04/06 23:55:09;;;;;;;64.55;21.20;;;;;;;;;;8295745;28;20455;-68
2021/04/06 23:59:16;;;;;;;69.43;22.95;;;;;;;;;;8296341;28;20057;-66
